createdAt,value
2022-10-11T06:45:38.730Z,93.10
2022-10-11T06:48:06.078Z,92.70
2022-10-11T06:50:57.873Z,92.70
2022-10-11T06:53:20.291Z,92.60
2022-10-11T06:55:47.232Z,92.50
2022-10-11T06:58:14.064Z,92.70
2022-10-11T07:00:40.851Z,92.40
2022-10-11T07:03:08.683Z,92.30
2022-10-11T07:05:35.873Z,92.30
2022-10-11T07:08:02.936Z,92.30
2022-10-11T07:10:29.711Z,92.20
2022-10-11T07:12:56.573Z,92.10
2022-10-11T07:15:24.598Z,92.00
2022-10-11T07:17:51.398Z,91.90
2022-10-11T07:20:18.235Z,91.80
2022-10-11T07:22:45.012Z,91.50
2022-10-11T07:25:11.804Z,91.50
2022-10-11T07:27:38.724Z,91.30
2022-10-11T07:30:06.342Z,91.30
2022-10-11T07:32:33.110Z,91.20
2022-10-11T07:34:59.957Z,91.10
2022-10-11T07:37:26.832Z,91.20
2022-10-11T07:39:53.650Z,91.10
2022-10-11T07:42:22.027Z,90.90
2022-10-11T07:44:48.984Z,90.90
2022-10-11T07:47:15.879Z,90.70
2022-10-11T07:49:42.781Z,90.70
2022-10-11T07:52:09.968Z,90.70
2022-10-11T07:54:36.799Z,90.70
2022-10-11T07:57:03.715Z,90.70
2022-10-11T07:59:30.488Z,90.60
2022-10-11T08:01:57.358Z,90.40
2022-10-11T08:04:25.448Z,90.30
2022-10-11T08:06:53.405Z,90.30
2022-10-11T08:09:20.510Z,90.30
2022-10-11T08:11:47.325Z,90.30
2022-10-11T08:14:14.103Z,90.40
2022-10-11T08:16:41.038Z,90.20
2022-10-11T08:19:08.010Z,90.20
2022-10-11T08:21:34.981Z,90.10
2022-10-11T08:24:03.571Z,90.00
2022-10-11T08:26:30.819Z,89.90
2022-10-11T08:28:58.945Z,90.00
2022-10-11T08:31:25.795Z,89.70
2022-10-11T08:33:52.752Z,89.80
2022-10-11T08:36:19.609Z,89.90
2022-10-11T08:38:46.384Z,89.90
2022-10-11T08:41:26.940Z,89.50
2022-10-11T08:44:08.791Z,89.30
2022-10-11T08:46:37.947Z,89.00
2022-10-11T08:49:07.129Z,89.00
2022-10-11T08:51:47.199Z,89.00
2022-10-11T08:54:27.054Z,89.10
2022-10-11T08:56:53.896Z,89.00
2022-10-11T08:59:43.118Z,89.00
2022-10-11T09:02:21.862Z,89.00
2022-10-11T09:04:51.569Z,88.60
2022-10-11T09:07:43.274Z,88.60
2022-10-11T09:10:39.592Z,88.50
2022-10-11T09:13:19.357Z,88.50
2022-10-11T09:15:53.849Z,88.70
2022-10-11T09:18:29.883Z,87.80
2022-10-11T09:21:05.535Z,87.60
2022-10-11T09:23:41.396Z,87.60
2022-10-11T09:26:31.372Z,87.20
2022-10-11T09:29:23.710Z,86.70
2022-10-11T09:31:57.142Z,86.70
2022-10-11T09:34:27.107Z,86.10
2022-10-11T09:37:07.837Z,86.30
2022-10-11T09:39:39.253Z,86.20
2022-10-11T09:42:08.716Z,85.90
2022-10-11T09:44:36.964Z,86.10
2022-10-11T09:47:05.242Z,87.00
2022-10-11T09:49:46.474Z,86.00
2022-10-11T09:52:19.300Z,85.90
2022-10-11T09:54:49.029Z,85.80
2022-10-11T09:57:23.584Z,85.40
2022-10-11T10:00:22.879Z,85.50
2022-10-11T10:03:02.891Z,85.50
2022-10-11T10:05:36.739Z,85.10
2022-10-11T10:08:09.685Z,85.10
2022-10-11T10:10:42.418Z,84.50
2022-10-11T10:13:36.970Z,84.40
2022-10-11T10:16:05.807Z,84.30
2022-10-11T10:18:54.912Z,84.50
2022-10-11T10:21:49.167Z,84.80
2022-10-11T10:24:27.900Z,83.80
2022-10-11T10:27:23.309Z,83.70
2022-10-11T10:30:07.988Z,83.80
2022-10-11T10:33:00.848Z,83.20
2022-10-11T10:35:40.456Z,83.50
2022-10-11T10:38:37.393Z,83.70
2022-10-11T10:41:13.831Z,83.60
2022-10-11T10:43:46.379Z,83.60
2022-10-11T10:46:31.965Z,83.40
2022-10-11T10:49:28.728Z,83.00
2022-10-11T10:52:05.343Z,83.60
2022-10-11T10:54:56.044Z,83.60
2022-10-11T10:57:28.471Z,82.90
2022-10-11T10:59:57.980Z,82.80
2022-10-11T11:02:54.758Z,82.90
2022-10-11T11:05:30.783Z,82.50
2022-10-11T11:08:15.756Z,81.40
2022-10-11T11:10:56.460Z,81.60
2022-10-11T11:13:32.231Z,81.10
2022-10-11T11:16:26.252Z,81.00
2022-10-11T11:19:06.220Z,81.20
2022-10-11T11:21:59.139Z,80.40
2022-10-11T11:24:44.437Z,82.00
2022-10-11T11:27:32.456Z,80.70
2022-10-11T11:30:09.483Z,80.60
2022-10-11T11:32:55.236Z,80.50
2022-10-11T11:35:36.627Z,79.90
2022-10-11T11:38:14.067Z,80.10
2022-10-11T11:40:46.568Z,80.60
2022-10-11T11:43:22.771Z,80.70
2022-10-11T11:46:00.910Z,80.20
2022-10-11T11:48:27.751Z,80.60
2022-10-11T11:51:03.711Z,79.50
2022-10-11T11:54:24.769Z,79.80
2022-10-11T11:57:20.638Z,80.20
2022-10-11T12:00:16.336Z,83.30
2022-10-11T12:02:53.861Z,80.60
2022-10-11T12:05:25.202Z,83.60
2022-10-11T12:07:59.972Z,83.10
2022-10-11T12:10:32.504Z,81.60
2022-10-11T12:13:22.545Z,80.90
2022-10-11T12:16:10.240Z,79.00
2022-10-11T12:18:48.055Z,79.00
2022-10-11T12:21:34.985Z,78.60
2022-10-11T12:24:10.585Z,78.60
2022-10-11T12:26:43.249Z,80.00
2022-10-11T12:29:28.445Z,80.00
2022-10-11T12:31:58.802Z,79.60
2022-10-11T12:34:44.960Z,78.20
2022-10-11T12:37:17.968Z,78.00
2022-10-11T12:39:51.994Z,77.50
2022-10-11T12:42:33.728Z,77.90
2022-10-11T12:45:12.963Z,77.00
2022-10-11T12:47:45.608Z,76.30
2022-10-11T12:50:23.091Z,76.00
2022-10-11T12:53:17.004Z,76.40
2022-10-11T12:56:12.140Z,75.30
2022-10-11T12:58:41.647Z,75.70
2022-10-11T13:01:17.558Z,75.50
2022-10-11T13:04:04.641Z,75.50
2022-10-11T13:06:36.254Z,74.80
2022-10-11T13:09:08.114Z,75.60
2022-10-11T13:11:44.264Z,75.10
2022-10-11T13:14:29.234Z,74.50
2022-10-11T13:17:14.060Z,74.60
2022-10-11T13:22:26.608Z,74.00
2022-10-11T13:24:57.891Z,73.80
2022-10-11T13:27:27.342Z,73.70
2022-10-11T13:29:59.420Z,73.20
2022-10-11T13:32:29.745Z,73.00
2022-10-11T13:35:14.508Z,74.00
2022-10-11T13:37:45.901Z,74.10
2022-10-11T13:40:19.136Z,72.90
2022-10-11T13:42:48.487Z,72.50
2022-10-11T13:45:19.782Z,73.00
2022-10-11T13:47:48.504Z,73.00
2022-10-11T13:50:15.469Z,72.90
2022-10-11T13:53:01.939Z,72.70
2022-10-11T13:55:51.765Z,72.80
2022-10-11T13:58:27.042Z,73.30
2022-10-11T14:01:16.617Z,73.50
2022-10-11T14:04:01.285Z,74.50
2022-10-11T14:06:46.893Z,74.10
2022-10-11T14:09:29.370Z,73.80
2022-10-11T14:12:16.305Z,74.20
2022-10-11T14:14:43.490Z,74.30
2022-10-11T14:17:22.616Z,73.20
2022-10-11T14:20:24.049Z,73.20
2022-10-11T14:22:54.444Z,73.10
2022-10-11T14:25:22.043Z,73.00
2022-10-11T14:27:49.587Z,73.20
2022-10-11T14:30:25.529Z,73.00
2022-10-11T14:32:54.830Z,73.30
2022-10-11T14:35:30.705Z,73.10
2022-10-11T14:37:58.048Z,72.80
2022-10-11T14:40:28.503Z,73.10
2022-10-11T14:42:55.741Z,72.80
2022-10-11T14:45:23.391Z,72.60
2022-10-11T14:47:50.894Z,73.80
2022-10-11T14:50:20.537Z,73.50
2022-10-11T14:52:47.301Z,73.10
2022-10-11T14:55:14.297Z,73.30
2022-10-11T14:57:41.130Z,73.20
2022-10-11T15:00:20.347Z,72.90
2022-10-11T15:02:47.492Z,73.30
2022-10-11T15:05:14.465Z,73.10
2022-10-11T15:07:41.431Z,72.90
2022-10-11T15:10:19.637Z,73.10
2022-10-11T15:12:46.612Z,72.10
2022-10-11T15:15:19.751Z,72.80
2022-10-11T15:17:55.731Z,72.90
2022-10-11T15:20:32.403Z,71.90
2022-10-11T15:23:00.632Z,73.00
2022-10-11T15:25:28.979Z,73.00
2022-10-11T15:27:56.723Z,70.70
2022-10-11T15:30:30.874Z,70.70
2022-10-11T15:32:58.018Z,69.10
2022-10-11T15:35:26.215Z,68.40
2022-10-11T15:37:58.094Z,68.00
2022-10-11T15:40:30.121Z,68.30
2022-10-11T15:42:57.316Z,68.10
2022-10-11T15:45:24.472Z,68.10
2022-10-11T15:47:51.659Z,68.30
2022-10-11T15:50:34.578Z,68.20
2022-10-11T15:53:08.428Z,69.20
2022-10-11T15:55:40.955Z,68.30
2022-10-11T15:58:14.101Z,68.40
2022-10-11T16:00:46.011Z,68.70
2022-10-11T16:03:15.470Z,68.90
2022-10-11T16:05:43.412Z,69.10
2022-10-11T16:08:10.900Z,69.30
2022-10-11T16:10:38.612Z,69.50
2022-10-11T16:13:09.218Z,69.80
2022-10-11T16:15:59.820Z,70.40
2022-10-11T16:18:35.567Z,70.30
2022-10-11T16:21:08.863Z,70.50
2022-10-11T16:23:36.552Z,70.90
2022-10-11T16:26:06.977Z,71.30
2022-10-11T16:28:34.436Z,71.50
2022-10-11T16:31:08.309Z,71.70
2022-10-11T16:33:36.466Z,71.80
2022-10-11T16:36:26.224Z,72.70
2022-10-11T16:38:53.034Z,74.00
2022-10-11T16:41:19.875Z,73.90
2022-10-11T16:43:54.093Z,74.50
2022-10-11T16:46:21.549Z,74.60
2022-10-11T16:48:48.720Z,75.30
2022-10-11T16:51:15.568Z,76.40
2022-10-11T16:53:42.466Z,76.70
2022-10-11T16:56:12.231Z,77.00
2022-10-11T16:58:39.147Z,77.30
2022-10-11T17:01:10.639Z,77.30
2022-10-11T17:03:38.269Z,78.00
2022-10-11T17:06:06.674Z,78.10
2022-10-11T17:08:36.724Z,78.70
2022-10-11T17:11:04.104Z,79.50
2022-10-11T17:13:30.997Z,79.80
2022-10-11T17:15:58.183Z,79.90
2022-10-11T17:18:25.028Z,79.90
2022-10-11T17:21:01.203Z,79.90
2022-10-11T17:23:28.049Z,80.30
2022-10-11T17:25:54.898Z,80.20
2022-10-11T17:28:23.112Z,80.50
2022-10-11T17:30:57.304Z,81.20
2022-10-11T17:33:28.541Z,81.50
2022-10-11T17:36:00.074Z,81.60
2022-10-11T17:38:28.328Z,81.30
2022-10-11T17:41:06.226Z,81.70
2022-10-11T17:43:33.815Z,82.10
2022-10-11T17:46:06.779Z,82.20
2022-10-11T17:48:36.604Z,82.20
2022-10-11T17:51:12.634Z,82.10
2022-10-11T17:53:39.789Z,82.00
2022-10-11T17:56:12.807Z,81.70
2022-10-11T17:58:40.065Z,81.80
2022-10-11T18:01:13.408Z,81.40
2022-10-11T18:03:41.078Z,81.80
2022-10-11T18:06:12.133Z,81.80
2022-10-11T18:08:40.835Z,81.80
2022-10-11T18:11:13.714Z,81.80
2022-10-11T18:13:45.678Z,82.10
2022-10-11T18:16:14.209Z,82.20
2022-10-11T18:18:44.848Z,82.70
2022-10-11T18:21:12.175Z,83.30
2022-10-11T18:23:39.616Z,83.70
2022-10-11T18:26:20.800Z,84.50
2022-10-11T18:28:48.754Z,85.10
2022-10-11T18:31:21.132Z,85.40
2022-10-11T18:33:50.712Z,85.40
2022-10-11T18:36:20.456Z,85.30
2022-10-11T18:38:49.189Z,85.70
2022-10-11T18:41:18.400Z,85.90
2022-10-11T18:44:06.585Z,86.10
2022-10-11T18:46:34.708Z,86.80
2022-10-11T18:49:02.105Z,86.30
2022-10-11T18:51:34.497Z,85.90
2022-10-11T18:54:01.716Z,85.20
2022-10-11T18:56:30.244Z,85.40
2022-10-11T18:58:58.782Z,85.70
2022-10-11T19:01:29.031Z,84.80
2022-10-11T19:03:57.992Z,84.50
2022-10-11T19:06:30.890Z,84.20
2022-10-11T19:09:22.296Z,84.40
2022-10-11T19:11:56.956Z,84.70
2022-10-11T19:14:26.694Z,84.80
2022-10-11T19:16:54.637Z,85.00
2022-10-11T19:19:25.433Z,84.90
2022-10-11T19:21:53.920Z,85.30
2022-10-11T19:24:23.123Z,85.70
2022-10-11T19:26:50.667Z,85.90
2022-10-11T19:29:20.812Z,86.10
2022-10-11T19:32:05.776Z,85.90
2022-10-11T19:34:32.808Z,86.00
2022-10-11T19:37:01.100Z,85.90
2022-10-11T19:39:30.931Z,85.60
2022-10-11T19:41:57.919Z,85.80
2022-10-11T19:44:24.804Z,86.30
2022-10-11T19:46:52.664Z,86.20
2022-10-11T19:49:23.982Z,86.50
2022-10-11T19:51:51.729Z,86.40
2022-10-11T19:54:18.853Z,86.60
2022-10-11T19:56:45.886Z,87.00
2022-10-11T19:59:14.612Z,86.40
2022-10-11T20:01:42.003Z,86.90
2022-10-11T20:04:22.955Z,87.20
2022-10-11T20:06:58.247Z,87.40
2022-10-11T20:09:29.660Z,87.80
2022-10-11T20:11:57.157Z,87.80
2022-10-11T20:14:24.044Z,88.10
2022-10-11T20:16:51.088Z,88.10
2022-10-11T20:19:18.550Z,88.40
2022-10-11T20:21:45.607Z,87.80
2022-10-11T20:24:12.664Z,87.90
2022-10-11T20:26:39.776Z,87.90
2022-10-11T20:29:06.918Z,87.40
2022-10-11T20:31:35.043Z,87.70
2022-10-11T20:34:04.903Z,88.30
2022-10-11T20:36:32.799Z,88.40
2022-10-11T20:39:00.466Z,88.70
2022-10-11T20:41:31.617Z,88.70
2022-10-11T20:44:01.421Z,88.10
2022-10-11T20:46:33.506Z,88.10
2022-10-11T20:49:03.135Z,87.80
2022-10-11T20:51:34.953Z,88.00
2022-10-11T20:54:04.095Z,88.00
2022-10-11T20:56:31.462Z,88.50
2022-10-11T20:58:58.535Z,88.40
2022-10-11T21:01:28.438Z,89.10
2022-10-11T21:03:57.848Z,89.40
2022-10-11T21:06:25.720Z,90.00
2022-10-11T21:08:59.042Z,89.30
2022-10-11T21:11:27.578Z,88.80
2022-10-11T21:13:56.259Z,88.90
2022-10-11T21:16:23.483Z,89.40
2022-10-11T21:18:51.948Z,89.70
2022-10-11T21:21:19.273Z,89.80
2022-10-11T21:23:46.326Z,89.70
2022-10-11T21:26:15.780Z,90.00
2022-10-11T21:28:44.324Z,89.90
2022-10-11T21:31:13.734Z,89.90
2022-10-11T21:33:41.801Z,89.70
2022-10-11T21:36:11.239Z,89.70
2022-10-11T21:38:38.536Z,89.80
2022-10-11T21:41:16.929Z,90.10
2022-10-11T21:43:43.895Z,90.30
2022-10-11T21:46:32.555Z,90.30
2022-10-11T21:49:08.916Z,90.30
2022-10-11T21:51:35.834Z,90.20
2022-10-11T21:54:02.667Z,90.10
2022-10-11T21:56:32.737Z,90.30
2022-10-11T21:58:59.537Z,90.00
2022-10-11T22:01:26.712Z,89.90
2022-10-11T22:03:54.468Z,89.60
2022-10-11T22:06:21.640Z,89.20
2022-10-11T22:08:49.967Z,89.60
2022-10-11T22:11:17.504Z,89.80
2022-10-11T22:13:44.386Z,89.30
2022-10-11T22:16:13.276Z,89.00
